Time;durP1;ratioP1;P1;durP2;ratioP2;P2;SDS_P1;SDS_P2;PMS_P1;PMS_P2;Temp;Humidity;BMP_temperature;BMP_pressure;BME280_temperature;BME280_humidity;BME280_pressure;Samples;Min_cycle;Max_cycle;Signal;HPM_P1;HPM_P2
2023/10/06 00:02:00;;;;;;;7.40;3.00;;;;;;;;;;5031670;28;20029;-73
2023/10/06 00:04:26;;;;;;;7.72;2.85;;;;;;;;;;5028286;28;20288;-73
2023/10/06 00:06:53;;;;;;;9.50;3.58;;;;;;;;;;5023397;28;20064;-73
2023/10/06 00:09:28;;;;;;;9.18;2.83;;;;;;;;;;5028501;28;20010;-73
2023/10/06 00:11:54;;;;;;;8.80;3.55;;;;;;;;;;5032055;28;20029;-73
2023/10/06 00:14:38;;;;;;;14.00;3.33;;;;;;;;;;5029313;28;20021;-73
2023/10/06 00:17:05;;;;;;;9.32;3.17;;;;;;;;;;5023025;28;20017;-73
2023/10/06 00:19:33;;;;;;;8.02;2.88;;;;;;;;;;5026092;28;20025;-73
2023/10/06 00:24:42;;;;;;;7.57;2.13;;;;;;;;;;5027824;28;20087;-73
2023/10/06 00:27:13;;;;;;;8.50;3.05;;;;;;;;;;5027558;28;20017;-73
2023/10/06 00:29:39;;;;;;;9.93;2.80;;;;;;;;;;5030464;28;20504;-73
2023/10/06 00:32:25;;;;;;;13.05;2.80;;;;;;;;;;5030977;28;20029;-73
2023/10/06 00:35:16;;;;;;;11.23;3.15;;;;;;;;;;5028296;28;20086;-73
2023/10/06 00:37:42;;;;;;;8.02;2.75;;;;;;;;;;5030068;28;20384;-73
2023/10/06 00:40:19;;;;;;;14.70;3.10;;;;;;;;;;5031760;28;20010;-73
2023/10/06 00:42:49;;;;;;;9.80;3.33;;;;;;;;;;5032659;28;20021;-73
2023/10/06 00:45:14;;;;;;;8.90;3.10;;;;;;;;;;5030474;28;20025;-73
2023/10/06 00:47:39;;;;;;;10.30;3.78;;;;;;;;;;5030258;28;20044;-73
2023/10/06 00:50:07;;;;;;;18.17;3.33;;;;;;;;;;5032868;28;20014;-73
2023/10/06 00:52:33;;;;;;;8.82;2.83;;;;;;;;;;5030903;28;20018;-73
2023/10/06 00:55:02;;;;;;;7.90;2.95;;;;;;;;;;5029051;28;20083;-73
2023/10/06 00:57:28;;;;;;;9.25;2.30;;;;;;;;;;5028868;28;20023;-73
2023/10/06 00:59:55;;;;;;;6.22;2.60;;;;;;;;;;5030278;28;20036;-73
2023/10/06 01:02:20;;;;;;;7.22;2.88;;;;;;;;;;5028750;28;20028;-73
2023/10/06 01:04:46;;;;;;;10.13;2.92;;;;;;;;;;5027868;28;20018;-73
2023/10/06 01:07:13;;;;;;;12.63;4.22;;;;;;;;;;5030381;28;20021;-72
2023/10/06 01:09:38;;;;;;;12.20;3.22;;;;;;;;;;5030919;28;20013;-72
2023/10/06 01:12:10;;;;;;;11.80;2.53;;;;;;;;;;5030941;28;20070;-72
2023/10/06 01:14:36;;;;;;;6.38;2.55;;;;;;;;;;5028908;28;20029;-72
2023/10/06 01:17:19;;;;;;;12.10;3.25;;;;;;;;;;5029309;28;20384;-72
2023/10/06 01:19:48;;;;;;;10.65;2.85;;;;;;;;;;5030571;28;20369;-72
2023/10/06 01:22:24;;;;;;;11.60;2.70;;;;;;;;;;5029267;28;20200;-72
2023/10/06 01:24:51;;;;;;;16.20;3.85;;;;;;;;;;5023816;28;20029;-72
2023/10/06 01:27:16;;;;;;;10.93;2.70;;;;;;;;;;5029633;28;20049;-72
2023/10/06 01:29:42;;;;;;;10.00;3.03;;;;;;;;;;5031564;28;20052;-72
2023/10/06 01:32:08;;;;;;;8.25;2.55;;;;;;;;;;5030327;28;20025;-72
2023/10/06 01:34:37;;;;;;;17.45;2.90;;;;;;;;;;5028684;28;20021;-72
2023/10/06 01:37:03;;;;;;;28.60;3.50;;;;;;;;;;5031318;28;20037;-72
2023/10/06 01:39:31;;;;;;;10.88;2.85;;;;;;;;;;5029401;28;20029;-72
2023/10/06 01:41:57;;;;;;;14.18;3.05;;;;;;;;;;5031254;28;20103;-72
2023/10/06 01:44:22;;;;;;;9.68;3.08;;;;;;;;;;5029929;28;20505;-72
2023/10/06 01:46:53;;;;;;;14.98;2.83;;;;;;;;;;5029094;28;20024;-72
2023/10/06 01:49:20;;;;;;;6.10;2.47;;;;;;;;;;5024499;28;20018;-73
2023/10/06 01:51:45;;;;;;;16.27;2.88;;;;;;;;;;5029651;28;20068;-73
2023/10/06 01:54:13;;;;;;;18.83;2.93;;;;;;;;;;5029720;28;20029;-72
2023/10/06 01:56:42;;;;;;;11.50;3.08;;;;;;;;;;5029964;28;20279;-72
2023/10/06 01:59:07;;;;;;;9.60;3.75;;;;;;;;;;5029823;28;20112;-72
2023/10/06 02:01:34;;;;;;;10.65;2.97;;;;;;;;;;5028640;28;20117;-73
2023/10/06 02:03:59;;;;;;;7.50;2.72;;;;;;;;;;5025930;28;20480;-73
2023/10/06 02:06:26;;;;;;;7.80;2.87;;;;;;;;;;5028710;28;20027;-73
2023/10/06 02:08:54;;;;;;;8.63;3.28;;;;;;;;;;5029340;28;20352;-73
2023/10/06 02:11:21;;;;;;;7.35;3.05;;;;;;;;;;5031513;28;20020;-73
2023/10/06 02:13:46;;;;;;;8.82;3.05;;;;;;;;;;5027974;28;20400;-72
2023/10/06 02:16:12;;;;;;;12.85;2.80;;;;;;;;;;5028442;28;20025;-72
2023/10/06 02:18:37;;;;;;;12.00;3.00;;;;;;;;;;5023523;28;20030;-72
2023/10/06 02:21:12;;;;;;;8.10;3.07;;;;;;;;;;5028472;28;20279;-72
2023/10/06 02:23:42;;;;;;;5.80;2.22;;;;;;;;;;5027662;28;20379;-72
2023/10/06 02:26:09;;;;;;;12.52;2.42;;;;;;;;;;5018664;28;20013;-72
2023/10/06 02:28:34;;;;;;;10.50;2.92;;;;;;;;;;5027177;28;20009;-72
2023/10/06 02:31:04;;;;;;;7.53;2.50;;;;;;;;;;5021844;28;20034;-72
2023/10/06 02:33:30;;;;;;;12.18;2.72;;;;;;;;;;5024139;28;20048;-72
2023/10/06 02:35:55;;;;;;;11.25;3.10;;;;;;;;;;5027005;28;20200;-72
2023/10/06 02:38:21;;;;;;;12.52;3.25;;;;;;;;;;5030206;28;20014;-72
2023/10/06 02:40:47;;;;;;;11.93;2.73;;;;;;;;;;5023334;28;20037;-72
2023/10/06 02:43:20;;;;;;;9.52;2.78;;;;;;;;;;5028868;28;20280;-72
2023/10/06 02:45:45;;;;;;;8.35;3.17;;;;;;;;;;5028710;28;20029;-72
2023/10/06 02:48:21;;;;;;;16.05;3.25;;;;;;;;;;5027984;28;20017;-73
2023/10/06 02:50:49;;;;;;;16.30;3.40;;;;;;;;;;5028100;28;20025;-73
2023/10/06 02:53:14;;;;;;;16.52;2.83;;;;;;;;;;5027991;28;20684;-73
2023/10/06 02:55:43;;;;;;;11.38;2.60;;;;;;;;;;5029551;28;20110;-73
2023/10/06 02:58:09;;;;;;;13.70;3.78;;;;;;;;;;5027918;28;20076;-73
2023/10/06 03:00:36;;;;;;;6.05;2.92;;;;;;;;;;5024485;28;20738;-73
2023/10/06 03:03:12;;;;;;;13.02;2.92;;;;;;;;;;5026613;28;20424;-73
2023/10/06 03:05:39;;;;;;;8.40;2.63;;;;;;;;;;5021151;28;20432;-73
2023/10/06 03:08:11;;;;;;;6.55;2.45;;;;;;;;;;5028438;28;20018;-73
2023/10/06 03:10:45;;;;;;;9.25;3.08;;;;;;;;;;5024963;28;20021;-73
2023/10/06 03:13:14;;;;;;;8.35;3.15;;;;;;;;;;5026272;28;20079;-73
2023/10/06 03:15:45;;;;;;;12.95;2.53;;;;;;;;;;5024872;28;20079;-73
2023/10/06 03:18:12;;;;;;;9.07;2.58;;;;;;;;;;5030215;28;20049;-73
2023/10/06 03:20:41;;;;;;;12.27;2.60;;;;;;;;;;5032206;28;20056;-73
2023/10/06 03:23:23;;;;;;;15.30;3.55;;;;;;;;;;5027086;28;20021;-73
2023/10/06 03:25:52;;;;;;;10.23;3.00;;;;;;;;;;5026812;28;20500;-72
2023/10/06 03:28:18;;;;;;;10.52;2.67;;;;;;;;;;5027401;28;20049;-72
2023/10/06 03:30:44;;;;;;;14.45;2.85;;;;;;;;;;5028041;28;20017;-72
2023/10/06 03:33:12;;;;;;;9.48;3.17;;;;;;;;;;5028162;28;20108;-73
2023/10/06 03:35:45;;;;;;;9.75;2.75;;;;;;;;;;5030108;28;20083;-73
2023/10/06 03:38:27;;;;;;;6.82;2.47;;;;;;;;;;5028145;28;20017;-73
2023/10/06 03:43:34;;;;;;;10.60;3.05;;;;;;;;;;5029827;28;20408;-73
2023/10/06 03:46:00;;;;;;;15.30;2.70;;;;;;;;;;5015525;28;20067;-72
2023/10/06 03:48:29;;;;;;;16.23;2.85;;;;;;;;;;5011233;28;20040;-72
2023/10/06 03:50:54;;;;;;;11.70;3.08;;;;;;;;;;5011365;28;20018;-73
2023/10/06 03:53:19;;;;;;;11.85;3.28;;;;;;;;;;5013913;28;20661;-73
2023/10/06 03:55:45;;;;;;;7.78;3.05;;;;;;;;;;5027287;28;20035;-73
2023/10/06 03:58:12;;;;;;;12.25;3.20;;;;;;;;;;5026876;28;20041;-73
2023/10/06 04:00:47;;;;;;;7.75;2.72;;;;;;;;;;5028986;28;20025;-73
2023/10/06 04:03:17;;;;;;;9.07;2.90;;;;;;;;;;5026483;28;20017;-73
2023/10/06 04:05:44;;;;;;;12.35;2.92;;;;;;;;;;5030008;28;20104;-73
2023/10/06 04:08:12;;;;;;;6.70;3.33;;;;;;;;;;5026573;28;20014;-72
2023/10/06 04:10:42;;;;;;;9.73;2.88;;;;;;;;;;5030363;28;20043;-73
2023/10/06 04:13:10;;;;;;;6.68;2.28;;;;;;;;;;5029784;28;20445;-73
2023/10/06 04:15:39;;;;;;;5.22;2.70;;;;;;;;;;5032026;28;20100;-73
2023/10/06 04:18:10;;;;;;;10.77;2.95;;;;;;;;;;5029020;28;20041;-72
2023/10/06 04:20:36;;;;;;;8.40;3.83;;;;;;;;;;5022084;28;20029;-72
2023/10/06 04:23:02;;;;;;;7.75;2.72;;;;;;;;;;5030925;28;20041;-73
2023/10/06 04:25:28;;;;;;;11.32;3.35;;;;;;;;;;5030627;28;20013;-73
2023/10/06 04:27:53;;;;;;;6.93;2.55;;;;;;;;;;5025817;28;20472;-73
2023/10/06 04:30:18;;;;;;;3.43;1.80;;;;;;;;;;5024952;28;20025;-73
2023/10/06 04:32:44;;;;;;;13.30;3.20;;;;;;;;;;5027848;28;20831;-72
2023/10/06 04:35:19;;;;;;;8.95;4.07;;;;;;;;;;5029854;28;20326;-72
2023/10/06 04:37:46;;;;;;;22.13;3.38;;;;;;;;;;5028583;28;20060;-72
2023/10/06 04:40:16;;;;;;;5.80;2.92;;;;;;;;;;5025795;28;20024;-73
2023/10/06 04:42:42;;;;;;;13.05;3.60;;;;;;;;;;5026519;28;20440;-73
2023/10/06 04:45:07;;;;;;;15.20;3.10;;;;;;;;;;5028612;28;20053;-73
2023/10/06 04:47:36;;;;;;;12.32;3.63;;;;;;;;;;5028784;28;20294;-73
2023/10/06 04:50:01;;;;;;;8.50;3.53;;;;;;;;;;5034886;28;20387;-73
2023/10/06 04:52:27;;;;;;;11.00;2.92;;;;;;;;;;5039206;28;20020;-73
2023/10/06 04:54:52;;;;;;;8.57;3.08;;;;;;;;;;5032976;28;20029;-73
2023/10/06 04:57:18;;;;;;;8.23;3.40;;;;;;;;;;5029442;28;20451;-73
2023/10/06 04:59:44;;;;;;;16.60;3.17;;;;;;;;;;5033857;28;20280;-73
2023/10/06 05:02:11;;;;;;;12.82;2.50;;;;;;;;;;5034797;28;20264;-73
2023/10/06 05:04:36;;;;;;;14.90;2.75;;;;;;;;;;5035052;28;20021;-72
2023/10/06 05:07:03;;;;;;;7.97;3.17;;;;;;;;;;5030135;28;20025;-72
2023/10/06 05:09:28;;;;;;;12.57;2.47;;;;;;;;;;5024446;28;20041;-73
2023/10/06 05:11:56;;;;;;;9.63;2.87;;;;;;;;;;5028614;28;20443;-73
2023/10/06 05:14:23;;;;;;;8.65;2.88;;;;;;;;;;5033811;28;20401;-73
2023/10/06 05:16:51;;;;;;;10.68;3.58;;;;;;;;;;5039222;28;20419;-73
2023/10/06 05:19:17;;;;;;;12.23;4.15;;;;;;;;;;5033786;28;20480;-73
2023/10/06 05:21:42;;;;;;;13.38;3.33;;;;;;;;;;5031775;28;20029;-72
2023/10/06 05:24:08;;;;;;;7.07;3.20;;;;;;;;;;5027492;28;20396;-72
2023/10/06 05:26:34;;;;;;;7.97;2.70;;;;;;;;;;5032749;28;20017;-72
2023/10/06 05:28:59;;;;;;;8.90;3.08;;;;;;;;;;5031644;28;20028;-72
2023/10/06 05:31:24;;;;;;;8.38;2.75;;;;;;;;;;5024653;28;20184;-72
2023/10/06 05:33:51;;;;;;;8.17;3.33;;;;;;;;;;5025005;28;20396;-73
2023/10/06 05:36:16;;;;;;;20.90;3.47;;;;;;;;;;5037338;28;20275;-73
2023/10/06 05:38:41;;;;;;;6.05;2.42;;;;;;;;;;5023708;28;20014;-73
2023/10/06 05:41:11;;;;;;;8.17;3.63;;;;;;;;;;5021949;28;20028;-73
2023/10/06 05:43:36;;;;;;;11.20;3.00;;;;;;;;;;5017546;28;20284;-73
2023/10/06 05:46:03;;;;;;;9.32;3.25;;;;;;;;;;5019964;28;20353;-73
2023/10/06 05:48:30;;;;;;;6.25;3.50;;;;;;;;;;5029172;28;20122;-73
2023/10/06 05:51:04;;;;;;;8.82;3.35;;;;;;;;;;5031077;28;20020;-73
2023/10/06 05:53:34;;;;;;;8.27;2.63;;;;;;;;;;5037091;28;20021;-72
2023/10/06 05:56:02;;;;;;;10.60;3.77;;;;;;;;;;5027924;28;20017;-72
2023/10/06 05:58:29;;;;;;;17.98;3.97;;;;;;;;;;5035475;28;20833;-72
2023/10/06 06:01:05;;;;;;;10.02;3.63;;;;;;;;;;5027043;28;20151;-73
2023/10/06 06:03:30;;;;;;;8.30;3.72;;;;;;;;;;5026399;28;20375;-72
2023/10/06 06:05:57;;;;;;;10.60;3.63;;;;;;;;;;5033650;28;20152;-72
2023/10/06 06:08:22;;;;;;;14.05;2.95;;;;;;;;;;5026824;28;20009;-72
2023/10/06 06:10:48;;;;;;;10.75;3.03;;;;;;;;;;5031568;28;20028;-72
2023/10/06 06:13:13;;;;;;;17.58;3.65;;;;;;;;;;5040167;28;20067;-72
2023/10/06 06:15:39;;;;;;;17.10;3.65;;;;;;;;;;5035298;28;20025;-72
2023/10/06 06:18:04;;;;;;;7.03;2.65;;;;;;;;;;5024139;28;20361;-72
2023/10/06 06:20:30;;;;;;;22.40;2.25;;;;;;;;;;5027658;28;20017;-73
2023/10/06 06:22:59;;;;;;;5.93;2.50;;;;;;;;;;5028559;28;20021;-72
2023/10/06 06:25:26;;;;;;;2.92;1.67;;;;;;;;;;5023643;28;20075;-72
2023/10/06 06:27:54;;;;;;;4.82;1.98;;;;;;;;;;5024016;28;20017;-72
2023/10/06 06:30:19;;;;;;;13.20;3.00;;;;;;;;;;5027327;28;20104;-72
2023/10/06 06:32:46;;;;;;;10.88;3.08;;;;;;;;;;5028398;28;20097;-73
2023/10/06 06:35:13;;;;;;;11.80;2.90;;;;;;;;;;5027165;28;20068;-72
2023/10/06 06:37:39;;;;;;;8.10;2.22;;;;;;;;;;5021412;28;20018;-73
2023/10/06 06:40:06;;;;;;;7.38;2.85;;;;;;;;;;5026563;28;20013;-72
2023/10/06 06:42:31;;;;;;;15.35;3.10;;;;;;;;;;5026518;28;20048;-72
2023/10/06 06:45:00;;;;;;;11.50;2.80;;;;;;;;;;5027666;28;20460;-72
2023/10/06 06:47:26;;;;;;;11.02;4.00;;;;;;;;;;5024396;28;20598;-72
2023/10/06 06:49:51;;;;;;;8.93;3.63;;;;;;;;;;5036696;28;20104;-72
2023/10/06 06:52:16;;;;;;;16.48;3.80;;;;;;;;;;5046605;28;20463;-72
2023/10/06 06:54:46;;;;;;;5.13;2.50;;;;;;;;;;5037793;28;20392;-72
2023/10/06 06:57:12;;;;;;;5.50;2.25;;;;;;;;;;5030620;28;20855;-72
2023/10/06 06:59:38;;;;;;;4.00;2.13;;;;;;;;;;5034617;28;20057;-72
2023/10/06 07:02:04;;;;;;;6.28;1.40;;;;;;;;;;5034121;28;20024;-72
2023/10/06 07:04:30;;;;;;;10.82;3.00;;;;;;;;;;5034724;28;20021;-73
2023/10/06 07:06:55;;;;;;;7.03;2.65;;;;;;;;;;5040710;28;20025;-72
2023/10/06 07:09:22;;;;;;;6.95;3.08;;;;;;;;;;5030733;28;20100;-72
2023/10/06 07:11:47;;;;;;;5.47;2.08;;;;;;;;;;5041824;28;20016;-72
2023/10/06 07:14:14;;;;;;;8.63;1.50;;;;;;;;;;5041651;28;20025;-72
2023/10/06 07:16:42;;;;;;;8.43;2.67;;;;;;;;;;5041490;28;20272;-72
2023/10/06 07:19:07;;;;;;;8.27;2.60;;;;;;;;;;5035604;28;20024;-72
2023/10/06 07:21:32;;;;;;;12.02;2.83;;;;;;;;;;5042024;28;20021;-72
2023/10/06 07:23:57;;;;;;;3.20;1.50;;;;;;;;;;5035762;28;20040;-72
2023/10/06 07:26:23;;;;;;;8.57;2.47;;;;;;;;;;5040235;28;20372;-72
2023/10/06 07:28:56;;;;;;;9.15;3.50;;;;;;;;;;5042943;28;20045;-72
2023/10/06 07:31:21;;;;;;;5.95;2.83;;;;;;;;;;5033587;28;20032;-72
2023/10/06 07:33:54;;;;;;;6.78;3.08;;;;;;;;;;5036264;28;20096;-73
2023/10/06 07:36:19;;;;;;;9.38;2.78;;;;;;;;;;5039111;28;20090;-73
2023/10/06 07:38:44;;;;;;;3.50;1.27;;;;;;;;;;5044836;28;20476;-72
2023/10/06 07:41:26;;;;;;;7.82;2.40;;;;;;;;;;5042953;28;20358;-72
2023/10/06 07:43:52;;;;;;;5.50;2.55;;;;;;;;;;5033594;28;20029;-73
2023/10/06 07:46:17;;;;;;;6.93;2.33;;;;;;;;;;5041693;28;20032;-72
2023/10/06 07:48:45;;;;;;;3.80;1.25;;;;;;;;;;5040311;28;20025;-72
2023/10/06 07:51:13;;;;;;;4.43;1.83;;;;;;;;;;5046199;28;20017;-72
2023/10/06 07:53:38;;;;;;;4.60;1.70;;;;;;;;;;5040603;28;20020;-72
2023/10/06 07:56:06;;;;;;;10.07;3.30;;;;;;;;;;5041490;28;20108;-73
2023/10/06 07:58:32;;;;;;;10.27;3.03;;;;;;;;;;5042985;28;20065;-72
2023/10/06 08:00:57;;;;;;;16.95;3.83;;;;;;;;;;5038473;28;20094;-72
2023/10/06 08:03:22;;;;;;;8.60;3.10;;;;;;;;;;5038366;28;20021;-73
2023/10/06 08:05:48;;;;;;;10.27;2.63;;;;;;;;;;5035713;28;20749;-73
2023/10/06 08:08:13;;;;;;;9.00;2.58;;;;;;;;;;5037163;28;20322;-72
2023/10/06 08:10:38;;;;;;;7.82;2.85;;;;;;;;;;5038979;28;20018;-72
2023/10/06 08:13:03;;;;;;;5.70;2.87;;;;;;;;;;5030271;28;20022;-72
2023/10/06 08:15:31;;;;;;;6.90;2.53;;;;;;;;;;5029052;28;20702;-72
2023/10/06 08:17:57;;;;;;;11.90;3.40;;;;;;;;;;5039117;28;20281;-72
2023/10/06 08:20:24;;;;;;;9.10;1.93;;;;;;;;;;5029405;28;20463;-72
2023/10/06 08:22:49;;;;;;;6.03;1.63;;;;;;;;;;5028075;28;20373;-73
2023/10/06 08:25:14;;;;;;;9.35;3.22;;;;;;;;;;5028872;28;20033;-73
2023/10/06 08:27:43;;;;;;;8.00;2.58;;;;;;;;;;5028409;28;20083;-73
2023/10/06 08:30:21;;;;;;;10.68;3.00;;;;;;;;;;5031033;28;20017;-72
2023/10/06 08:32:47;;;;;;;7.80;2.75;;;;;;;;;;5027416;28;20500;-72
2023/10/06 08:35:15;;;;;;;7.07;2.70;;;;;;;;;;5032002;28;20014;-72
2023/10/06 08:37:44;;;;;;;8.40;2.80;;;;;;;;;;5028775;28;20025;-72
2023/10/06 08:40:16;;;;;;;17.70;3.28;;;;;;;;;;5021789;28;20543;-73
2023/10/06 08:42:41;;;;;;;11.50;2.63;;;;;;;;;;5030473;28;20423;-73
2023/10/06 08:45:07;;;;;;;5.47;1.88;;;;;;;;;;5024653;28;20013;-73
2023/10/06 08:47:35;;;;;;;6.47;2.47;;;;;;;;;;5032820;28;20022;-73
2023/10/06 08:50:00;;;;;;;10.80;3.33;;;;;;;;;;5033619;28;20035;-72
2023/10/06 08:52:28;;;;;;;5.22;1.95;;;;;;;;;;5040703;28;20469;-72
2023/10/06 08:54:53;;;;;;;5.95;1.60;;;;;;;;;;5035439;28;20091;-72
2023/10/06 08:57:19;;;;;;;4.18;1.80;;;;;;;;;;5038387;28;20387;-72
2023/10/06 08:59:44;;;;;;;6.32;2.10;;;;;;;;;;5027777;28;20369;-72
2023/10/06 09:02:10;;;;;;;6.38;1.98;;;;;;;;;;5033742;28;20027;-73
2023/10/06 09:04:36;;;;;;;12.93;2.92;;;;;;;;;;5032653;28;20034;-72
2023/10/06 09:07:15;;;;;;;2.83;1.63;;;;;;;;;;5048551;28;20353;-73
2023/10/06 09:09:40;;;;;;;8.10;2.33;;;;;;;;;;5031402;28;20503;-73
2023/10/06 09:12:07;;;;;;;14.25;3.05;;;;;;;;;;5039699;28;20042;-73
2023/10/06 09:14:33;;;;;;;16.15;2.30;;;;;;;;;;5030351;28;20026;-72
2023/10/06 09:17:01;;;;;;;13.27;2.63;;;;;;;;;;5041915;28;20029;-72
2023/10/06 09:19:27;;;;;;;6.50;2.38;;;;;;;;;;5043012;28;20031;-73
2023/10/06 09:22:05;;;;;;;9.32;3.08;;;;;;;;;;5034448;28;20104;-73
2023/10/06 09:24:30;;;;;;;12.45;2.25;;;;;;;;;;5034687;28;20028;-73
2023/10/06 09:26:55;;;;;;;10.30;2.42;;;;;;;;;;5035327;28;20014;-73
2023/10/06 09:29:32;;;;;;;8.77;2.80;;;;;;;;;;5038941;28;20040;-73
2023/10/06 09:31:57;;;;;;;6.50;2.80;;;;;;;;;;5039583;28;20014;-73
2023/10/06 09:34:23;;;;;;;7.80;2.80;;;;;;;;;;5039055;28;20023;-73
2023/10/06 09:36:50;;;;;;;15.35;3.75;;;;;;;;;;5037830;28;20279;-73
2023/10/06 09:39:25;;;;;;;7.60;2.65;;;;;;;;;;5035767;28;20018;-72
2023/10/06 09:41:51;;;;;;;7.28;3.03;;;;;;;;;;5030479;28;20069;-73
2023/10/06 09:44:18;;;;;;;9.07;2.85;;;;;;;;;;5042657;28;20479;-72
2023/10/06 09:46:43;;;;;;;3.25;1.45;;;;;;;;;;5040396;28;20028;-72
2023/10/06 09:49:11;;;;;;;16.02;3.25;;;;;;;;;;5035833;28;20032;-73
2023/10/06 09:51:37;;;;;;;10.65;3.08;;;;;;;;;;5032034;28;20126;-73
2023/10/06 09:54:04;;;;;;;10.35;3.17;;;;;;;;;;5030674;28;20564;-72
2023/10/06 09:56:31;;;;;;;12.23;2.92;;;;;;;;;;5029815;28;20021;-72
2023/10/06 09:58:57;;;;;;;11.18;3.63;;;;;;;;;;5021331;28;20689;-72
2023/10/06 10:01:24;;;;;;;8.10;2.70;;;;;;;;;;5019116;28;20024;-72
2023/10/06 10:03:50;;;;;;;13.20;3.00;;;;;;;;;;5022835;28;20049;-72
2023/10/06 10:06:20;;;;;;;7.20;2.97;;;;;;;;;;5031535;28;20045;-72
2023/10/06 10:08:46;;;;;;;9.98;2.80;;;;;;;;;;5031154;28;20021;-72
2023/10/06 10:11:29;;;;;;;9.27;2.63;;;;;;;;;;5029451;28;20070;-72
2023/10/06 10:14:15;;;;;;;12.43;2.42;;;;;;;;;;5042595;28;20439;-73
2023/10/06 10:16:46;;;;;;;12.30;3.17;;;;;;;;;;5041783;28;20024;-73
2023/10/06 10:19:14;;;;;;;4.40;1.77;;;;;;;;;;5029399;28;20460;-73
2023/10/06 10:21:41;;;;;;;7.10;2.83;;;;;;;;;;5027974;28;20100;-73
2023/10/06 10:24:09;;;;;;;16.90;4.03;;;;;;;;;;5032061;28;20029;-73
2023/10/06 10:26:35;;;;;;;12.82;3.00;;;;;;;;;;5028016;28;20029;-73
2023/10/06 10:29:12;;;;;;;9.73;2.00;;;;;;;;;;5030982;28;20064;-73
2023/10/06 10:31:37;;;;;;;9.50;3.95;;;;;;;;;;5031734;28;20021;-73
2023/10/06 10:34:02;;;;;;;9.98;2.80;;;;;;;;;;5038244;28;20031;-73
2023/10/06 10:36:27;;;;;;;5.97;2.90;;;;;;;;;;5043186;28;20021;-73
2023/10/06 10:38:57;;;;;;;8.23;2.80;;;;;;;;;;5038495;28;20276;-73
2023/10/06 10:41:23;;;;;;;8.98;2.63;;;;;;;;;;5037179;28;20471;-73
2023/10/06 10:43:48;;;;;;;9.52;2.35;;;;;;;;;;5042979;28;20083;-73
2023/10/06 10:46:14;;;;;;;8.90;2.83;;;;;;;;;;5030450;28;20047;-73
2023/10/06 10:48:47;;;;;;;13.77;2.67;;;;;;;;;;5026555;28;20096;-73
2023/10/06 10:51:13;;;;;;;14.13;2.75;;;;;;;;;;5026959;28;20391;-73
2023/10/06 10:53:41;;;;;;;8.52;1.75;;;;;;;;;;5026013;28;20104;-73
2023/10/06 10:56:13;;;;;;;10.55;2.67;;;;;;;;;;5027574;28;20053;-73
2023/10/06 10:58:41;;;;;;;9.70;2.53;;;;;;;;;;5027506;28;20056;-73
2023/10/06 11:01:27;;;;;;;13.90;2.85;;;;;;;;;;5024226;28;20100;-73
2023/10/06 11:04:29;;;;;;;10.48;2.65;;;;;;;;;;5024447;28;20025;-73
2023/10/06 11:06:58;;;;;;;9.48;2.58;;;;;;;;;;5025882;28;20055;-73
2023/10/06 11:09:36;;;;;;;6.43;2.10;;;;;;;;;;5028055;28;20045;-73
2023/10/06 11:12:05;;;;;;;6.70;2.17;;;;;;;;;;5027820;28;20021;-73
2023/10/06 11:14:30;;;;;;;10.25;2.28;;;;;;;;;;5028080;28;20468;-73
2023/10/06 11:17:05;;;;;;;4.90;2.17;;;;;;;;;;5025413;28;20026;-72
2023/10/06 11:19:31;;;;;;;12.20;3.53;;;;;;;;;;5025238;28;20059;-73
2023/10/06 11:22:07;;;;;;;10.70;2.42;;;;;;;;;;5028965;28;20028;-73
2023/10/06 11:24:33;;;;;;;19.35;3.33;;;;;;;;;;5025608;28;20038;-73
2023/10/06 11:27:09;;;;;;;10.27;2.38;;;;;;;;;;5027468;28;20018;-73
2023/10/06 11:29:35;;;;;;;5.00;1.95;;;;;;;;;;5025242;28;20021;-73
2023/10/06 11:32:01;;;;;;;7.88;2.40;;;;;;;;;;5024512;28;20091;-73
2023/10/06 11:34:26;;;;;;;9.07;2.63;;;;;;;;;;5027284;28;20484;-73
2023/10/06 11:36:52;;;;;;;8.63;1.42;;;;;;;;;;5029216;28;20052;-73
2023/10/06 11:39:18;;;;;;;11.68;2.17;;;;;;;;;;5032406;28;20492;-73
2023/10/06 11:41:43;;;;;;;12.95;2.75;;;;;;;;;;5026260;28;20021;-73
2023/10/06 11:44:09;;;;;;;10.77;3.03;;;;;;;;;;5032287;28;20403;-73
2023/10/06 11:46:50;;;;;;;10.20;2.47;;;;;;;;;;5030699;28;20412;-73
2023/10/06 11:49:19;;;;;;;10.93;3.00;;;;;;;;;;5028786;28;20020;-73
2023/10/06 11:51:44;;;;;;;10.13;2.63;;;;;;;;;;5029485;28;20376;-73
2023/10/06 11:54:10;;;;;;;6.78;2.00;;;;;;;;;;5030107;28;20025;-73
2023/10/06 11:56:47;;;;;;;10.38;2.63;;;;;;;;;;5031217;28;20527;-73
2023/10/06 11:59:20;;;;;;;13.60;2.58;;;;;;;;;;5031344;28;20033;-73
2023/10/06 12:01:47;;;;;;;11.63;2.65;;;;;;;;;;5031819;28;20022;-73
2023/10/06 12:04:22;;;;;;;13.93;3.40;;;;;;;;;;5031098;28;20083;-73
2023/10/06 12:06:48;;;;;;;7.72;2.65;;;;;;;;;;5032264;28;20829;-74
2023/10/06 12:09:23;;;;;;;11.35;2.38;;;;;;;;;;5030218;28;20033;-73
2023/10/06 12:11:48;;;;;;;9.32;2.03;;;;;;;;;;5031708;28;20067;-73
2023/10/06 12:14:13;;;;;;;9.50;2.53;;;;;;;;;;5030345;28;20021;-73
2023/10/06 12:16:38;;;;;;;5.20;2.25;;;;;;;;;;5033744;28;20257;-72
2023/10/06 12:19:05;;;;;;;11.90;2.57;;;;;;;;;;5025172;28;20136;-72
2023/10/06 12:21:30;;;;;;;7.25;2.20;;;;;;;;;;5024729;28;20272;-72
2023/10/06 12:23:56;;;;;;;10.73;2.50;;;;;;;;;;5029995;28;20033;-72
2023/10/06 12:26:22;;;;;;;17.47;3.17;;;;;;;;;;5020989;28;20053;-72
2023/10/06 12:28:48;;;;;;;8.35;2.10;;;;;;;;;;5022956;28;20307;-73
2023/10/06 12:31:13;;;;;;;10.68;2.40;;;;;;;;;;5028492;28;20017;-72
2023/10/06 12:33:38;;;;;;;4.93;2.10;;;;;;;;;;5024197;28;20014;-72
2023/10/06 12:36:08;;;;;;;11.00;2.58;;;;;;;;;;5024432;28;20698;-72
2023/10/06 12:38:33;;;;;;;8.43;2.63;;;;;;;;;;5031211;28;20013;-73
2023/10/06 12:40:59;;;;;;;12.00;2.37;;;;;;;;;;5025507;28;20464;-73
2023/10/06 12:43:24;;;;;;;7.50;2.20;;;;;;;;;;5026286;28;20287;-72
2023/10/06 12:45:50;;;;;;;11.23;2.22;;;;;;;;;;5027522;28;20372;-72
2023/10/06 12:48:15;;;;;;;5.57;2.20;;;;;;;;;;5028948;28;20041;-72
2023/10/06 12:50:40;;;;;;;10.63;2.30;;;;;;;;;;5031133;28;20130;-72
2023/10/06 12:53:10;;;;;;;6.38;2.25;;;;;;;;;;5034749;28;20033;-72
2023/10/06 12:55:35;;;;;;;8.07;2.40;;;;;;;;;;5032087;28;20013;-72
2023/10/06 12:58:00;;;;;;;11.60;2.45;;;;;;;;;;5032129;28;20039;-72
2023/10/06 13:00:28;;;;;;;7.90;2.33;;;;;;;;;;5028915;28;20021;-72
2023/10/06 13:02:53;;;;;;;9.15;2.83;;;;;;;;;;5031191;28;20033;-72
2023/10/06 13:05:18;;;;;;;4.95;2.17;;;;;;;;;;5030713;28;20017;-72
2023/10/06 13:07:46;;;;;;;17.23;3.00;;;;;;;;;;5030329;28;20028;-71
2023/10/06 13:10:13;;;;;;;6.95;2.10;;;;;;;;;;5030314;28;20474;-72
2023/10/06 13:12:39;;;;;;;7.50;1.85;;;;;;;;;;5031595;28;20354;-72
2023/10/06 13:15:17;;;;;;;11.43;2.80;;;;;;;;;;5036724;28;20026;-72
2023/10/06 13:17:43;;;;;;;10.07;2.72;;;;;;;;;;5027832;28;20484;-72
2023/10/06 13:20:08;;;;;;;12.10;2.38;;;;;;;;;;5029519;28;20021;-72
2023/10/06 13:22:35;;;;;;;5.70;2.20;;;;;;;;;;5030109;28;20021;-72
2023/10/06 13:25:02;;;;;;;13.57;2.20;;;;;;;;;;5033133;28;20071;-72
2023/10/06 13:27:28;;;;;;;9.07;2.40;;;;;;;;;;5027866;28;20041;-72
2023/10/06 13:29:55;;;;;;;7.10;2.47;;;;;;;;;;5030283;28;20208;-72
2023/10/06 13:32:21;;;;;;;6.35;2.05;;;;;;;;;;5031000;28;20056;-72
2023/10/06 13:34:47;;;;;;;6.05;2.25;;;;;;;;;;5033344;28;20018;-72
2023/10/06 13:37:14;;;;;;;8.45;2.47;;;;;;;;;;5030483;28;20036;-72
2023/10/06 13:39:39;;;;;;;10.32;2.45;;;;;;;;;;5032138;28;20075;-72
2023/10/06 13:42:04;;;;;;;9.00;2.00;;;;;;;;;;5030415;28;20427;-72
2023/10/06 13:44:31;;;;;;;12.03;2.67;;;;;;;;;;5032875;28;20035;-72
2023/10/06 13:46:56;;;;;;;14.20;2.63;;;;;;;;;;5030764;28;20260;-72
2023/10/06 13:49:22;;;;;;;7.95;2.17;;;;;;;;;;5032030;28;20028;-72
2023/10/06 13:51:47;;;;;;;11.20;2.63;;;;;;;;;;5029350;28;20465;-72
2023/10/06 13:54:13;;;;;;;8.20;2.43;;;;;;;;;;5024132;28;20176;-72
2023/10/06 13:56:39;;;;;;;10.45;2.65;;;;;;;;;;5030056;28;20741;-72
2023/10/06 13:59:04;;;;;;;9.32;2.40;;;;;;;;;;5025074;28;20038;-72
2023/10/06 14:01:30;;;;;;;16.60;2.92;;;;;;;;;;5027116;28;20025;-71
2023/10/06 14:03:57;;;;;;;7.70;2.60;;;;;;;;;;5032340;28;20116;-72
2023/10/06 14:06:22;;;;;;;12.50;2.45;;;;;;;;;;5029770;28;20029;-72
2023/10/06 14:08:48;;;;;;;13.70;2.70;;;;;;;;;;5028691;28;20079;-72
2023/10/06 14:11:13;;;;;;;6.03;2.42;;;;;;;;;;5029432;28;21925;-72
2023/10/06 14:13:43;;;;;;;13.00;2.40;;;;;;;;;;5029030;28;20480;-72
2023/10/06 14:16:09;;;;;;;8.80;2.70;;;;;;;;;;5031003;28;20030;-72
2023/10/06 14:18:34;;;;;;;9.75;2.38;;;;;;;;;;5028755;28;20043;-72
2023/10/06 14:21:05;;;;;;;13.50;2.75;;;;;;;;;;5030089;28;20025;-72
2023/10/06 14:23:32;;;;;;;5.93;2.38;;;;;;;;;;5027350;28;20033;-72
2023/10/06 14:25:59;;;;;;;12.07;2.88;;;;;;;;;;5023879;28;20029;-72
2023/10/06 14:28:25;;;;;;;9.05;3.17;;;;;;;;;;5020569;28;20721;-72
2023/10/06 14:30:53;;;;;;;7.65;2.58;;;;;;;;;;5024971;28;20101;-72
2023/10/06 14:33:39;;;;;;;9.98;2.40;;;;;;;;;;5023894;28;20494;-71
2023/10/06 14:46:39;;;;;;;13.88;2.65;;;;;;;;;;5023803;28;20075;-72
2023/10/06 14:49:05;;;;;;;6.25;2.65;;;;;;;;;;5034431;28;20388;-72
2023/10/06 14:51:31;;;;;;;10.18;2.20;;;;;;;;;;5023357;28;20151;-72
2023/10/06 14:53:57;;;;;;;8.30;2.38;;;;;;;;;;5023886;28;20113;-72
2023/10/06 14:56:23;;;;;;;12.32;3.33;;;;;;;;;;5025123;28;20024;-72